RYR97KC LIEE-LIME
Flight info
| Callsign | RYR97KC |
|---|---|
| Flight time | 1h 11m |
| Altitude | 18000 |
| Route | KOVAS Q125 DEXUL/N0458F340 DCT PIDUL DCT MAMAR DCT ROSKI DCT LOMED DCT IPLUB DCT OSBUL |
| Aircraft | B738/M-SDE2E3FGHIRWXY/LB1 |
Departure
| Time | 2026-04-29 21:01 |
|---|---|
| Airport | Cagliari Elmas Airport (LIEE) |
Arrival
| Time | 2026-04-29 22:12 |
|---|---|
| Airport | Il Caravaggio International Airport (LIME) |
| Time | Latitude | Longitude | Altitude | Speed | Heading |
|---|---|---|---|---|---|
| 2026-04-29 20:31 | 39.25319 | 9.05800 | 20 ft | 0 kts | 113° |
| 2026-04-29 20:53 | 39.25319 | 9.05797 | 20 ft | 1 kts | 113° |
| 2026-04-29 20:53 | 39.25325 | 9.05779 | 20 ft | 2 kts | 113° |
| 2026-04-29 20:53 | 39.25331 | 9.05762 | 20 ft | 2 kts | 113° |
| 2026-04-29 20:53 | 39.25337 | 9.05744 | 20 ft | 2 kts | 115° |
| 2026-04-29 20:54 | 39.25363 | 9.05728 | 20 ft | 2 kts | 192° |
| 2026-04-29 20:54 | 39.25375 | 9.05735 | 20 ft | 1 kts | 224° |
| 2026-04-29 20:54 | 39.25380 | 9.05741 | 20 ft | 1 kts | 232° |
| 2026-04-29 20:55 | 39.25381 | 9.05744 | 20 ft | 0 kts | 230° |
| 2026-04-29 20:57 | 39.25380 | 9.05743 | 20 ft | 1 kts | 229° |
| 2026-04-29 20:57 | 39.25353 | 9.05701 | 20 ft | 7 kts | 239° |
| 2026-04-29 20:57 | 39.25366 | 9.05632 | 20 ft | 11 kts | 307° |
| 2026-04-29 20:57 | 39.25400 | 9.05524 | 20 ft | 14 kts | 281° |
| 2026-04-29 20:58 | 39.25433 | 9.05390 | 20 ft | 17 kts | 300° |
| 2026-04-29 20:58 | 39.25520 | 9.05269 | 20 ft | 18 kts | 318° |
| 2026-04-29 20:58 | 39.25621 | 9.05152 | 20 ft | 20 kts | 318° |
| 2026-04-29 20:58 | 39.25729 | 9.05028 | 20 ft | 21 kts | 317° |
| 2026-04-29 20:59 | 39.25842 | 9.04897 | 20 ft | 22 kts | 317° |
| 2026-04-29 20:59 | 39.25961 | 9.04754 | 20 ft | 23 kts | 316° |
| 2026-04-29 20:59 | 39.26084 | 9.04612 | 20 ft | 23 kts | 317° |
| 2026-04-29 20:59 | 39.26137 | 9.04469 | 20 ft | 16 kts | 274° |
| 2026-04-29 21:00 | 39.26072 | 9.04381 | 20 ft | 14 kts | 174° |
| 2026-04-29 21:00 | 39.25989 | 9.04452 | 20 ft | 19 kts | 137° |
| 2026-04-29 21:00 | 39.25719 | 9.04769 | 20 ft | 83 kts | 138° |
| 2026-04-29 21:00 | 39.25147 | 9.05430 | 20 ft | 136 kts | 138° |
| 2026-04-29 21:01 | 39.24342 | 9.06363 | 100 ft | 170 kts | 139° |
| 2026-04-29 21:01 | 39.23496 | 9.07340 | 803 ft | 161 kts | 138° |
| 2026-04-29 21:01 | 39.22642 | 9.08280 | 1256 ft | 168 kts | 139° |
| 2026-04-29 21:01 | 39.21731 | 9.09327 | 1556 ft | 181 kts | 135° |
| 2026-04-29 21:02 | 39.20778 | 9.10475 | 1872 ft | 194 kts | 135° |
| 2026-04-29 21:02 | 39.19684 | 9.11632 | 2164 ft | 212 kts | 147° |
| 2026-04-29 21:02 | 39.18251 | 9.12298 | 2523 ft | 228 kts | 177° |
| 2026-04-29 21:02 | 39.16756 | 9.11795 | 3207 ft | 229 kts | 211° |
| 2026-04-29 21:03 | 39.15582 | 9.10393 | 3861 ft | 230 kts | 228° |
| 2026-04-29 21:03 | 39.14653 | 9.08736 | 4451 ft | 233 kts | 241° |
| 2026-04-29 21:03 | 39.14225 | 9.06717 | 4886 ft | 245 kts | 271° |
| 2026-04-29 21:03 | 39.14779 | 9.04594 | 5210 ft | 263 kts | 306° |
| 2026-04-29 21:04 | 39.16130 | 9.02955 | 5634 ft | 274 kts | 323° |
| 2026-04-29 21:04 | 39.17746 | 9.01601 | 6216 ft | 278 kts | 327° |
| 2026-04-29 21:04 | 39.19436 | 9.00371 | 6854 ft | 280 kts | 330° |
| 2026-04-29 21:04 | 39.21158 | 8.99236 | 7553 ft | 280 kts | 332° |
| 2026-04-29 21:05 | 39.22929 | 8.98159 | 8263 ft | 280 kts | 333° |
| 2026-04-29 21:05 | 39.24709 | 8.97158 | 8929 ft | 282 kts | 335° |
| 2026-04-29 21:05 | 39.26524 | 8.96229 | 9631 ft | 283 kts | 336° |
| 2026-04-29 21:05 | 39.28385 | 8.95373 | 10325 ft | 285 kts | 338° |
| 2026-04-29 21:06 | 39.30262 | 8.94613 | 11005 ft | 287 kts | 340° |
| 2026-04-29 21:06 | 39.32198 | 8.93944 | 11675 ft | 290 kts | 342° |
| 2026-04-29 21:06 | 39.34180 | 8.93392 | 12371 ft | 293 kts | 345° |
| 2026-04-29 21:06 | 39.36184 | 8.92964 | 13062 ft | 296 kts | 347° |
| 2026-04-29 21:07 | 39.38251 | 8.92660 | 13751 ft | 299 kts | 350° |
| 2026-04-29 21:07 | 39.40337 | 8.92497 | 14376 ft | 305 kts | 353° |
| 2026-04-29 21:07 | 39.42475 | 8.92620 | 14950 ft | 315 kts | 6° |
| 2026-04-29 21:07 | 39.44573 | 8.93533 | 15562 ft | 324 kts | 21° |
| 2026-04-29 21:08 | 39.46568 | 8.94868 | 16143 ft | 330 kts | 25° |
| 2026-04-29 21:08 | 39.48597 | 8.96339 | 16741 ft | 334 kts | 26° |
| 2026-04-29 21:08 | 39.50637 | 8.97796 | 17333 ft | 337 kts | 25° |
| 2026-04-29 21:08 | 39.52690 | 8.99216 | 17876 ft | 341 kts | 25° |
| 2026-04-29 21:09 | 39.54821 | 9.00650 | 18456 ft | 344 kts | 24° |
| 2026-04-29 21:09 | 39.56945 | 9.02056 | 19019 ft | 347 kts | 24° |
| 2026-04-29 21:09 | 39.59095 | 9.03469 | 19566 ft | 350 kts | 24° |
| 2026-04-29 21:09 | 39.61276 | 9.04900 | 20105 ft | 353 kts | 24° |
| 2026-04-29 21:10 | 39.63499 | 9.06302 | 20625 ft | 356 kts | 21° |
| 2026-04-29 21:10 | 39.65798 | 9.07472 | 21134 ft | 357 kts | 15° |
| 2026-04-29 21:10 | 39.68170 | 9.08400 | 21654 ft | 359 kts | 12° |
| 2026-04-29 21:10 | 39.70610 | 9.09229 | 22131 ft | 362 kts | 11° |
| 2026-04-29 21:11 | 39.73066 | 9.10020 | 22598 ft | 365 kts | 11° |
| 2026-04-29 21:11 | 39.75510 | 9.10804 | 23069 ft | 367 kts | 11° |
| 2026-04-29 21:11 | 39.78000 | 9.11611 | 23505 ft | 371 kts | 12° |
| 2026-04-29 21:11 | 39.80505 | 9.12434 | 23991 ft | 373 kts | 12° |
| 2026-04-29 21:12 | 39.83031 | 9.13311 | 24405 ft | 377 kts | 14° |
| 2026-04-29 21:12 | 39.85513 | 9.14450 | 24852 ft | 381 kts | 22° |
| 2026-04-29 21:12 | 39.87841 | 9.16091 | 25260 ft | 385 kts | 31° |
| 2026-04-29 21:12 | 39.90053 | 9.18085 | 25701 ft | 387 kts | 35° |
| 2026-04-29 21:13 | 39.92193 | 9.20209 | 26099 ft | 390 kts | 37° |
| 2026-04-29 21:13 | 39.94309 | 9.22379 | 26530 ft | 391 kts | 37° |
| 2026-04-29 21:13 | 39.96448 | 9.24587 | 26952 ft | 393 kts | 37° |
| 2026-04-29 21:13 | 39.97293 | 9.25457 | 27106 ft | 393 kts | 37° |
| 2026-04-29 21:14 | 39.99434 | 9.27653 | 27517 ft | 395 kts | 37° |
| 2026-04-29 21:14 | 40.01593 | 9.29852 | 27916 ft | 396 kts | 37° |
| 2026-04-29 21:14 | 40.03785 | 9.32075 | 28255 ft | 399 kts | 37° |
| 2026-04-29 21:14 | 40.05978 | 9.34291 | 28683 ft | 399 kts | 36° |
| 2026-04-29 21:15 | 40.08154 | 9.36486 | 29003 ft | 402 kts | 36° |
| 2026-04-29 21:15 | 40.10389 | 9.38739 | 29365 ft | 404 kts | 37° |
| 2026-04-29 21:15 | 40.12586 | 9.40954 | 29719 ft | 405 kts | 36° |
| 2026-04-29 21:15 | 40.14830 | 9.43217 | 30056 ft | 407 kts | 37° |
| 2026-04-29 21:16 | 40.17071 | 9.45478 | 30390 ft | 408 kts | 37° |
| 2026-04-29 21:16 | 40.19348 | 9.47777 | 30686 ft | 410 kts | 37° |
| 2026-04-29 21:16 | 40.21623 | 9.50074 | 31014 ft | 412 kts | 37° |
| 2026-04-29 21:16 | 40.23891 | 9.52367 | 31302 ft | 414 kts | 37° |
| 2026-04-29 21:17 | 40.26172 | 9.54674 | 31595 ft | 415 kts | 37° |
| 2026-04-29 21:17 | 40.28459 | 9.56991 | 31892 ft | 417 kts | 37° |
| 2026-04-29 21:17 | 40.30769 | 9.59332 | 32183 ft | 418 kts | 37° |
| 2026-04-29 21:17 | 40.33083 | 9.61679 | 32310 ft | 424 kts | 37° |
| 2026-04-29 21:18 | 40.35437 | 9.64069 | 32374 ft | 431 kts | 36° |
| 2026-04-29 21:18 | 40.37846 | 9.66515 | 32518 ft | 436 kts | 37° |
| 2026-04-29 21:18 | 40.40245 | 9.68954 | 32839 ft | 436 kts | 37° |
| 2026-04-29 21:18 | 40.42639 | 9.71392 | 33214 ft | 435 kts | 37° |
| 2026-04-29 21:19 | 40.45026 | 9.73824 | 33517 ft | 436 kts | 37° |
| 2026-04-29 21:19 | 40.47441 | 9.76288 | 33863 ft | 435 kts | 37° |
| 2026-04-29 21:19 | 40.49827 | 9.78726 | 34196 ft | 434 kts | 37° |
| 2026-04-29 21:19 | 40.52173 | 9.81125 | 34478 ft | 434 kts | 37° |
| 2026-04-29 21:20 | 40.54556 | 9.83564 | 34740 ft | 434 kts | 37° |
| 2026-04-29 21:20 | 40.56971 | 9.86039 | 34968 ft | 434 kts | 37° |
| 2026-04-29 21:20 | 40.59358 | 9.88486 | 35191 ft | 435 kts | 36° |
| 2026-04-29 21:20 | 40.61741 | 9.90929 | 35416 ft | 434 kts | 36° |
| 2026-04-29 21:21 | 40.64108 | 9.93358 | 35649 ft | 434 kts | 36° |
| 2026-04-29 21:21 | 40.66476 | 9.95793 | 35864 ft | 434 kts | 36° |
| 2026-04-29 21:21 | 40.68848 | 9.98233 | 36062 ft | 434 kts | 36° |
| 2026-04-29 21:21 | 40.71240 | 10.00696 | 36255 ft | 434 kts | 36° |
| 2026-04-29 21:22 | 40.73612 | 10.03142 | 36529 ft | 433 kts | 36° |
| 2026-04-29 21:22 | 40.75984 | 10.05589 | 36784 ft | 433 kts | 36° |
| 2026-04-29 21:22 | 40.78336 | 10.08018 | 37011 ft | 434 kts | 36° |
| 2026-04-29 21:23 | 40.83125 | 10.12970 | 37154 ft | 441 kts | 36° |
| 2026-04-29 21:23 | 40.85534 | 10.15465 | 37283 ft | 443 kts | 36° |
| 2026-04-29 21:23 | 40.87969 | 10.17988 | 37474 ft | 444 kts | 36° |
| 2026-04-29 21:23 | 40.90397 | 10.20508 | 37718 ft | 444 kts | 36° |
| 2026-04-29 21:24 | 40.92809 | 10.23014 | 37981 ft | 442 kts | 36° |
| 2026-04-29 21:24 | 40.97667 | 10.28065 | 38012 ft | 448 kts | 36° |
| 2026-04-29 21:25 | 41.02602 | 10.33208 | 38012 ft | 454 kts | 36° |
| 2026-04-29 21:25 | 41.07603 | 10.38353 | 38015 ft | 460 kts | 34° |
| 2026-04-29 21:26 | 41.12791 | 10.43402 | 38015 ft | 464 kts | 33° |
| 2026-04-29 21:26 | 41.18029 | 10.48430 | 38004 ft | 462 kts | 33° |
| 2026-04-29 21:27 | 41.23185 | 10.53401 | 38018 ft | 462 kts | 33° |
| 2026-04-29 21:27 | 41.28383 | 10.58444 | 38008 ft | 460 kts | 33° |
| 2026-04-29 21:28 | 41.33556 | 10.63491 | 38027 ft | 461 kts | 33° |
| 2026-04-29 21:28 | 41.38703 | 10.68530 | 38007 ft | 461 kts | 34° |
| 2026-04-29 21:28 | 41.41409 | 10.70775 | 38006 ft | 454 kts | 20° |
| 2026-04-29 21:29 | 41.44402 | 10.71832 | 38028 ft | 446 kts | 1° |
| 2026-04-29 21:29 | 41.50541 | 10.71338 | 38017 ft | 443 kts | 351° |
| 2026-04-29 21:30 | 41.56644 | 10.70394 | 38026 ft | 441 kts | 351° |
| 2026-04-29 21:30 | 41.62769 | 10.69512 | 38026 ft | 441 kts | 351° |
| 2026-04-29 21:31 | 41.68849 | 10.68717 | 38017 ft | 441 kts | 352° |
| 2026-04-29 21:31 | 41.74968 | 10.67963 | 38027 ft | 441 kts | 352° |
| 2026-04-29 21:32 | 41.81062 | 10.67230 | 38024 ft | 440 kts | 352° |
| 2026-04-29 21:32 | 41.87174 | 10.66497 | 38002 ft | 439 kts | 352° |
| 2026-04-29 21:33 | 41.93266 | 10.65764 | 38015 ft | 440 kts | 352° |
| 2026-04-29 21:33 | 41.99342 | 10.65034 | 38027 ft | 439 kts | 352° |
| 2026-04-29 21:34 | 42.05417 | 10.64303 | 38021 ft | 438 kts | 352° |
| 2026-04-29 21:34 | 42.11478 | 10.63573 | 38023 ft | 438 kts | 352° |
| 2026-04-29 21:35 | 42.17575 | 10.62837 | 38023 ft | 438 kts | 352° |
| 2026-04-29 21:35 | 42.23613 | 10.62102 | 38024 ft | 437 kts | 352° |
| 2026-04-29 21:36 | 42.29659 | 10.61367 | 38022 ft | 438 kts | 352° |
| 2026-04-29 21:36 | 42.35705 | 10.60632 | 38027 ft | 437 kts | 352° |
| 2026-04-29 21:37 | 42.41754 | 10.59896 | 38029 ft | 436 kts | 352° |
| 2026-04-29 21:37 | 42.47807 | 10.59156 | 38029 ft | 435 kts | 352° |
| 2026-04-29 21:38 | 42.53822 | 10.58419 | 38032 ft | 435 kts | 352° |
| 2026-04-29 21:38 | 42.59855 | 10.57678 | 38031 ft | 435 kts | 352° |
| 2026-04-29 21:39 | 42.65897 | 10.56934 | 38033 ft | 436 kts | 352° |
| 2026-04-29 21:39 | 42.71927 | 10.56191 | 38033 ft | 436 kts | 352° |
| 2026-04-29 21:40 | 42.77976 | 10.55444 | 38036 ft | 434 kts | 352° |
| 2026-04-29 21:40 | 42.83983 | 10.54704 | 38037 ft | 434 kts | 352° |
| 2026-04-29 21:41 | 42.89981 | 10.53961 | 38040 ft | 433 kts | 352° |
| 2026-04-29 21:41 | 42.95997 | 10.53212 | 38039 ft | 434 kts | 352° |
| 2026-04-29 21:42 | 43.02033 | 10.52461 | 38039 ft | 434 kts | 352° |
| 2026-04-29 21:42 | 43.08059 | 10.51711 | 38041 ft | 434 kts | 352° |
| 2026-04-29 21:43 | 43.14061 | 10.50962 | 38043 ft | 432 kts | 352° |
| 2026-04-29 21:43 | 43.20035 | 10.50216 | 38045 ft | 431 kts | 352° |
| 2026-04-29 21:44 | 43.26045 | 10.49462 | 38045 ft | 432 kts | 352° |
| 2026-04-29 21:44 | 43.32050 | 10.48708 | 38053 ft | 431 kts | 352° |
| 2026-04-29 21:45 | 43.38003 | 10.47958 | 38054 ft | 432 kts | 352° |
| 2026-04-29 21:45 | 43.44016 | 10.47199 | 38053 ft | 430 kts | 352° |
| 2026-04-29 21:46 | 43.50018 | 10.46441 | 38059 ft | 430 kts | 352° |
| 2026-04-29 21:46 | 43.55970 | 10.45688 | 38054 ft | 430 kts | 352° |
| 2026-04-29 21:47 | 43.61904 | 10.44936 | 38060 ft | 428 kts | 352° |
| 2026-04-29 21:47 | 43.67889 | 10.44175 | 38062 ft | 429 kts | 352° |
| 2026-04-29 21:48 | 43.73830 | 10.43418 | 38058 ft | 429 kts | 352° |
| 2026-04-29 21:48 | 43.79803 | 10.42658 | 38065 ft | 428 kts | 352° |
| 2026-04-29 21:49 | 43.85748 | 10.41900 | 38061 ft | 427 kts | 352° |
| 2026-04-29 21:49 | 43.91672 | 10.41143 | 37900 ft | 424 kts | 352° |
| 2026-04-29 21:49 | 43.94597 | 10.40770 | 37476 ft | 418 kts | 352° |
| 2026-04-29 21:50 | 43.97452 | 10.40406 | 36979 ft | 413 kts | 352° |
| 2026-04-29 21:50 | 44.00319 | 10.40039 | 36436 ft | 409 kts | 351° |
| 2026-04-29 21:50 | 44.03116 | 10.39680 | 35949 ft | 407 kts | 351° |
| 2026-04-29 21:50 | 44.05937 | 10.39316 | 35332 ft | 409 kts | 351° |
| 2026-04-29 21:51 | 44.08747 | 10.38952 | 34680 ft | 411 kts | 351° |
| 2026-04-29 21:51 | 44.11610 | 10.38580 | 33934 ft | 413 kts | 351° |
| 2026-04-29 21:51 | 44.17420 | 10.37820 | 31667 ft | 433 kts | 351° |
| 2026-04-29 21:52 | 44.20455 | 10.37421 | 30525 ft | 441 kts | 351° |
| 2026-04-29 21:52 | 44.23531 | 10.37021 | 29510 ft | 445 kts | 351° |
| 2026-04-29 21:52 | 44.26606 | 10.36623 | 28580 ft | 447 kts | 351° |
| 2026-04-29 21:52 | 44.29672 | 10.36229 | 27677 ft | 448 kts | 351° |
| 2026-04-29 21:53 | 44.32787 | 10.35829 | 27054 ft | 443 kts | 352° |
| 2026-04-29 21:53 | 44.35816 | 10.35442 | 26421 ft | 439 kts | 352° |
| 2026-04-29 21:53 | 44.38863 | 10.35051 | 25782 ft | 434 kts | 352° |
| 2026-04-29 21:53 | 44.41821 | 10.34670 | 25158 ft | 431 kts | 351° |
| 2026-04-29 21:54 | 44.44790 | 10.34285 | 24525 ft | 427 kts | 351° |
| 2026-04-29 21:54 | 44.47735 | 10.33901 | 23852 ft | 424 kts | 351° |
| 2026-04-29 21:54 | 44.50677 | 10.33516 | 23116 ft | 424 kts | 351° |
| 2026-04-29 21:54 | 44.53572 | 10.33136 | 22459 ft | 421 kts | 351° |
| 2026-04-29 21:55 | 44.56490 | 10.32753 | 21845 ft | 417 kts | 352° |
| 2026-04-29 21:55 | 44.59352 | 10.32379 | 21266 ft | 413 kts | 352° |
| 2026-04-29 21:55 | 44.62169 | 10.32009 | 20691 ft | 409 kts | 352° |
| 2026-04-29 21:55 | 44.65005 | 10.31634 | 20100 ft | 404 kts | 352° |
| 2026-04-29 21:56 | 44.67767 | 10.31269 | 19544 ft | 400 kts | 352° |
| 2026-04-29 21:56 | 44.70517 | 10.30906 | 19084 ft | 393 kts | 352° |
| 2026-04-29 21:56 | 44.73199 | 10.30552 | 18811 ft | 381 kts | 352° |
| 2026-04-29 21:56 | 44.75790 | 10.30209 | 18670 ft | 366 kts | 352° |
| 2026-04-29 21:57 | 44.78267 | 10.29881 | 18527 ft | 352 kts | 352° |
| 2026-04-29 21:57 | 44.80644 | 10.29532 | 18410 ft | 338 kts | 350° |
| 2026-04-29 21:57 | 44.82937 | 10.28926 | 18127 ft | 329 kts | 345° |
| 2026-04-29 21:57 | 44.85125 | 10.28055 | 17663 ft | 327 kts | 341° |
| 2026-04-29 21:58 | 44.87259 | 10.27044 | 17230 ft | 324 kts | 339° |
| 2026-04-29 21:58 | 44.89356 | 10.25996 | 16837 ft | 321 kts | 339° |
| 2026-04-29 21:58 | 44.91462 | 10.24938 | 16436 ft | 318 kts | 340° |
| 2026-04-29 21:58 | 44.93502 | 10.23927 | 16014 ft | 311 kts | 340° |
| 2026-04-29 21:59 | 44.95517 | 10.22942 | 15662 ft | 302 kts | 340° |
| 2026-04-29 21:59 | 44.97497 | 10.21979 | 15255 ft | 299 kts | 340° |
| 2026-04-29 21:59 | 44.99437 | 10.21040 | 14842 ft | 297 kts | 340° |
| 2026-04-29 21:59 | 45.01387 | 10.20095 | 14473 ft | 293 kts | 341° |
| 2026-04-29 22:00 | 45.03296 | 10.19168 | 14102 ft | 291 kts | 341° |
| 2026-04-29 22:00 | 45.05196 | 10.18246 | 13737 ft | 290 kts | 341° |
| 2026-04-29 22:00 | 45.07090 | 10.17324 | 13351 ft | 287 kts | 341° |
| 2026-04-29 22:00 | 45.08981 | 10.16405 | 12983 ft | 285 kts | 341° |
| 2026-04-29 22:01 | 45.10831 | 10.15505 | 12615 ft | 281 kts | 340° |
| 2026-04-29 22:01 | 45.12689 | 10.14601 | 12269 ft | 279 kts | 340° |
| 2026-04-29 22:01 | 45.14512 | 10.13714 | 11892 ft | 277 kts | 340° |
| 2026-04-29 22:01 | 45.16303 | 10.12841 | 11543 ft | 274 kts | 340° |
| 2026-04-29 22:02 | 45.18108 | 10.11961 | 11195 ft | 272 kts | 340° |
| 2026-04-29 22:02 | 45.19895 | 10.11088 | 10817 ft | 270 kts | 340° |
| 2026-04-29 22:02 | 45.21651 | 10.10231 | 10477 ft | 267 kts | 340° |
| 2026-04-29 22:02 | 45.23381 | 10.09387 | 10184 ft | 262 kts | 341° |
| 2026-04-29 22:03 | 45.25097 | 10.08550 | 10033 ft | 258 kts | 340° |
| 2026-04-29 22:03 | 45.26849 | 10.07692 | 9637 ft | 273 kts | 341° |
| 2026-04-29 22:03 | 45.28638 | 10.06816 | 9300 ft | 276 kts | 341° |
| 2026-04-29 22:03 | 45.30459 | 10.05926 | 8943 ft | 277 kts | 341° |
| 2026-04-29 22:04 | 45.32278 | 10.05037 | 8597 ft | 275 kts | 341° |
| 2026-04-29 22:04 | 45.34086 | 10.04150 | 8246 ft | 274 kts | 341° |
| 2026-04-29 22:04 | 45.35880 | 10.03269 | 7906 ft | 274 kts | 341° |
| 2026-04-29 22:04 | 45.37667 | 10.02391 | 7564 ft | 272 kts | 342° |
| 2026-04-29 22:05 | 45.39455 | 10.01511 | 7223 ft | 271 kts | 342° |
| 2026-04-29 22:05 | 45.41241 | 10.00632 | 6880 ft | 270 kts | 342° |
| 2026-04-29 22:05 | 45.44751 | 9.98904 | 6252 ft | 264 kts | 342° |
| 2026-04-29 22:06 | 45.46464 | 9.98059 | 6143 ft | 254 kts | 342° |
| 2026-04-29 22:06 | 45.48099 | 9.97252 | 6075 ft | 250 kts | 343° |
| 2026-04-29 22:06 | 45.49742 | 9.96489 | 5979 ft | 242 kts | 347° |
| 2026-04-29 22:06 | 45.51357 | 9.96128 | 5752 ft | 237 kts | 359° |
| 2026-04-29 22:07 | 45.52998 | 9.96085 | 5450 ft | 236 kts | 2° |
| 2026-04-29 22:07 | 45.54634 | 9.96087 | 5169 ft | 234 kts | 1° |
| 2026-04-29 22:07 | 45.56250 | 9.96049 | 4911 ft | 226 kts | 1° |
| 2026-04-29 22:07 | 45.57787 | 9.95984 | 4693 ft | 220 kts | 0° |
| 2026-04-29 22:08 | 45.59317 | 9.95908 | 4419 ft | 220 kts | 0° |
| 2026-04-29 22:08 | 45.60841 | 9.95705 | 4167 ft | 220 kts | 349° |
| 2026-04-29 22:08 | 45.62201 | 9.94734 | 3905 ft | 223 kts | 314° |
| 2026-04-29 22:08 | 45.62903 | 9.92770 | 3611 ft | 226 kts | 282° |
| 2026-04-29 22:09 | 45.63123 | 9.90585 | 3367 ft | 221 kts | 279° |
| 2026-04-29 22:09 | 45.63411 | 9.88448 | 3067 ft | 220 kts | 285° |
| 2026-04-29 22:09 | 45.63824 | 9.86404 | 2771 ft | 208 kts | 288° |
| 2026-04-29 22:09 | 45.64208 | 9.84483 | 2500 ft | 197 kts | 286° |
| 2026-04-29 22:10 | 45.64540 | 9.82640 | 2247 ft | 184 kts | 285° |
| 2026-04-29 22:10 | 45.64859 | 9.80943 | 1989 ft | 173 kts | 287° |
| 2026-04-29 22:10 | 45.65165 | 9.79355 | 1815 ft | 161 kts | 285° |
| 2026-04-29 22:10 | 45.65450 | 9.77799 | 1563 ft | 161 kts | 285° |
| 2026-04-29 22:11 | 45.65741 | 9.76273 | 1348 ft | 158 kts | 285° |
| 2026-04-29 22:11 | 45.66041 | 9.74729 | 1214 ft | 158 kts | 286° |
| 2026-04-29 22:11 | 45.66317 | 9.73235 | 953 ft | 157 kts | 283° |
| 2026-04-29 22:11 | 45.66590 | 9.71741 | 774 ft | 149 kts | 284° |
| 2026-04-29 22:12 | 45.66808 | 9.70555 | 790 ft | 100 kts | 285° |
| 2026-04-29 22:12 | 45.66954 | 9.69769 | 789 ft | 68 kts | 285° |
| 2026-04-29 22:12 | 45.67038 | 9.69309 | 789 ft | 38 kts | 284° |
| 2026-04-29 22:12 | 45.67068 | 9.69000 | 788 ft | 28 kts | 263° |
| 2026-04-29 22:13 | 45.66978 | 9.68881 | 787 ft | 15 kts | 188° |
| 2026-04-29 22:13 | 45.66915 | 9.68963 | 787 ft | 13 kts | 97° |
| 2026-04-29 22:13 | 45.66905 | 9.69097 | 787 ft | 13 kts | 96° |
| 2026-04-29 22:13 | 45.66890 | 9.69216 | 787 ft | 11 kts | 104° |
| 2026-04-29 22:14 | 45.66871 | 9.69325 | 787 ft | 11 kts | 104° |
| 2026-04-29 22:14 | 45.66852 | 9.69427 | 787 ft | 10 kts | 105° |
| 2026-04-29 22:14 | 45.66834 | 9.69520 | 788 ft | 9 kts | 106° |
| 2026-04-29 22:14 | 45.66817 | 9.69607 | 788 ft | 8 kts | 106° |
| 2026-04-29 22:15 | 45.66796 | 9.69641 | 788 ft | 4 kts | 181° |
| 2026-04-29 22:15 | 45.66764 | 9.69631 | 787 ft | 5 kts | 195° |
| 2026-04-29 22:15 | 45.66731 | 9.69618 | 785 ft | 3 kts | 195° |
| 2026-04-29 22:15 | 45.66728 | 9.69617 | 785 ft | 0 kts | 195° |